sensor_id;sensor_type;location;lat;lon;timestamp;temperature;humidity
29539;DHT22;16482;51.046;4.498;2023-05-29T00:02:21;24.30;41.90
29539;DHT22;16482;51.046;4.498;2023-05-29T00:04:55;24.30;41.90
29539;DHT22;16482;51.046;4.498;2023-05-29T00:07:21;24.30;41.90
29539;DHT22;16482;51.046;4.498;2023-05-29T00:09:50;24.30;42.00
29539;DHT22;16482;51.046;4.498;2023-05-29T00:12:23;24.30;41.90
29539;DHT22;16482;51.046;4.498;2023-05-29T00:14:49;24.30;41.90
29539;DHT22;16482;51.046;4.498;2023-05-29T00:17:23;24.30;41.90
29539;DHT22;16482;51.046;4.498;2023-05-29T00:19:49;24.30;41.90
29539;DHT22;16482;51.046;4.498;2023-05-29T00:22:24;24.30;41.90
29539;DHT22;16482;51.046;4.498;2023-05-29T00:24:53;24.30;41.90
29539;DHT22;16482;51.046;4.498;2023-05-29T00:27:21;24.30;41.90
29539;DHT22;16482;51.046;4.498;2023-05-29T00:29:52;24.30;41.90
29539;DHT22;16482;51.046;4.498;2023-05-29T00:32:21;24.30;41.90
29539;DHT22;16482;51.046;4.498;2023-05-29T00:34:54;24.30;41.90
29539;DHT22;16482;51.046;4.498;2023-05-29T00:37:21;24.30;41.80
29539;DHT22;16482;51.046;4.498;2023-05-29T00:39:50;24.30;41.90
29539;DHT22;16482;51.046;4.498;2023-05-29T00:42:25;24.30;41.90
29539;DHT22;16482;51.046;4.498;2023-05-29T00:44:51;24.30;41.80
29539;DHT22;16482;51.046;4.498;2023-05-29T00:47:20;24.30;41.90
29539;DHT22;16482;51.046;4.498;2023-05-29T00:49:52;24.30;41.90
29539;DHT22;16482;51.046;4.498;2023-05-29T00:52:21;24.30;41.90
29539;DHT22;16482;51.046;4.498;2023-05-29T00:54:56;24.30;41.90
29539;DHT22;16482;51.046;4.498;2023-05-29T00:57:23;24.30;41.80
29539;DHT22;16482;51.046;4.498;2023-05-29T00:59:52;24.30;41.80
29539;DHT22;16482;51.046;4.498;2023-05-29T01:02:24;24.30;41.90
29539;DHT22;16482;51.046;4.498;2023-05-29T01:04:51;24.30;41.80
29539;DHT22;16482;51.046;4.498;2023-05-29T01:07:20;24.30;41.80
29539;DHT22;16482;51.046;4.498;2023-05-29T01:09:51;24.20;41.80
29539;DHT22;16482;51.046;4.498;2023-05-29T01:18:21;24.30;41.80
29539;DHT22;16482;51.046;4.498;2023-05-29T01:26:48;24.20;41.80
29539;DHT22;16482;51.046;4.498;2023-05-29T01:29:23;24.20;41.70
29539;DHT22;16482;51.046;4.498;2023-05-29T01:31:51;24.20;41.70
29539;DHT22;16482;51.046;4.498;2023-05-29T01:34:19;24.20;41.80
29539;DHT22;16482;51.046;4.498;2023-05-29T01:36:45;24.20;41.80
29539;DHT22;16482;51.046;4.498;2023-05-29T01:39:12;24.20;41.70
29539;DHT22;16482;51.046;4.498;2023-05-29T01:41:39;24.20;41.70
29539;DHT22;16482;51.046;4.498;2023-05-29T01:44:08;24.20;41.60
29539;DHT22;16482;51.046;4.498;2023-05-29T01:46:35;24.20;41.60
29539;DHT22;16482;51.046;4.498;2023-05-29T01:49:02;24.20;41.70
29539;DHT22;16482;51.046;4.498;2023-05-29T01:51:31;24.20;41.60
29539;DHT22;16482;51.046;4.498;2023-05-29T01:54:00;24.20;41.60
29539;DHT22;16482;51.046;4.498;2023-05-29T01:56:36;24.20;41.60
29539;DHT22;16482;51.046;4.498;2023-05-29T01:59:03;24.20;41.50
29539;DHT22;16482;51.046;4.498;2023-05-29T02:01:31;24.20;41.60
29539;DHT22;16482;51.046;4.498;2023-05-29T02:04:02;24.20;41.50
29539;DHT22;16482;51.046;4.498;2023-05-29T02:06:31;24.20;41.50
29539;DHT22;16482;51.046;4.498;2023-05-29T02:09:06;24.20;42.00
29539;DHT22;16482;51.046;4.498;2023-05-29T02:11:32;24.20;41.40
29539;DHT22;16482;51.046;4.498;2023-05-29T02:14:01;24.20;41.30
29539;DHT22;16482;51.046;4.498;2023-05-29T02:16:29;24.20;41.30
29539;DHT22;16482;51.046;4.498;2023-05-29T02:19:01;24.20;41.30
29539;DHT22;16482;51.046;4.498;2023-05-29T02:21:38;24.10;41.20
29539;DHT22;16482;51.046;4.498;2023-05-29T02:24:05;24.20;41.20
29539;DHT22;16482;51.046;4.498;2023-05-29T02:26:31;24.20;41.20
29539;DHT22;16482;51.046;4.498;2023-05-29T02:29:06;24.20;41.20
29539;DHT22;16482;51.046;4.498;2023-05-29T02:31:32;24.20;41.00
29539;DHT22;16482;51.046;4.498;2023-05-29T02:34:07;24.20;41.00
29539;DHT22;16482;51.046;4.498;2023-05-29T02:36:33;24.20;40.90
29539;DHT22;16482;51.046;4.498;2023-05-29T02:39:02;24.20;41.00
29539;DHT22;16482;51.046;4.498;2023-05-29T02:41:36;24.20;40.90
29539;DHT22;16482;51.046;4.498;2023-05-29T02:44:02;24.20;40.70
29539;DHT22;16482;51.046;4.498;2023-05-29T02:46:35;24.20;40.70
29539;DHT22;16482;51.046;4.498;2023-05-29T02:49:01;24.20;40.60
29539;DHT22;16482;51.046;4.498;2023-05-29T02:51:36;24.20;40.60
29539;DHT22;16482;51.046;4.498;2023-05-29T02:54:02;24.20;40.40
29539;DHT22;16482;51.046;4.498;2023-05-29T02:56:31;24.10;40.50
29539;DHT22;16482;51.046;4.498;2023-05-29T02:59:06;24.10;40.50
29539;DHT22;16482;51.046;4.498;2023-05-29T03:01:32;24.20;40.40
29539;DHT22;16482;51.046;4.498;2023-05-29T03:04:01;24.20;40.40
29539;DHT22;16482;51.046;4.498;2023-05-29T03:06:30;24.10;40.30
29539;DHT22;16482;51.046;4.498;2023-05-29T03:09:05;24.20;40.20
29539;DHT22;16482;51.046;4.498;2023-05-29T03:11:32;24.10;40.10
29539;DHT22;16482;51.046;4.498;2023-05-29T03:14:03;24.10;40.00
29539;DHT22;16482;51.046;4.498;2023-05-29T03:16:31;24.10;40.00
29539;DHT22;16482;51.046;4.498;2023-05-29T03:19:05;24.10;40.00
29539;DHT22;16482;51.046;4.498;2023-05-29T03:21:33;24.20;40.00
29539;DHT22;16482;51.046;4.498;2023-05-29T03:24:01;24.10;39.90
29539;DHT22;16482;51.046;4.498;2023-05-29T03:26:31;24.10;39.90
29539;DHT22;16482;51.046;4.498;2023-05-29T03:28:59;24.10;39.90
29539;DHT22;16482;51.046;4.498;2023-05-29T03:31:34;24.20;39.80
29539;DHT22;16482;51.046;4.498;2023-05-29T03:34:00;24.10;39.70
29539;DHT22;16482;51.046;4.498;2023-05-29T03:36:32;24.10;39.70
29539;DHT22;16482;51.046;4.498;2023-05-29T03:39:01;24.10;39.60
29539;DHT22;16482;51.046;4.498;2023-05-29T03:41:36;24.10;39.60
29539;DHT22;16482;51.046;4.498;2023-05-29T03:44:02;24.10;39.50
29539;DHT22;16482;51.046;4.498;2023-05-29T03:46:37;24.10;39.40
29539;DHT22;16482;51.046;4.498;2023-05-29T03:49:02;24.10;39.40
29539;DHT22;16482;51.046;4.498;2023-05-29T03:51:31;24.10;39.40
29539;DHT22;16482;51.046;4.498;2023-05-29T03:54:06;24.10;39.40
29539;DHT22;16482;51.046;4.498;2023-05-29T03:56:35;24.10;39.30
29539;DHT22;16482;51.046;4.498;2023-05-29T03:59:02;24.10;39.30
29539;DHT22;16482;51.046;4.498;2023-05-29T04:01:31;24.10;39.50
29539;DHT22;16482;51.046;4.498;2023-05-29T04:04:04;24.10;39.20
29539;DHT22;16482;51.046;4.498;2023-05-29T04:06:32;24.10;39.10
29539;DHT22;16482;51.046;4.498;2023-05-29T04:09:01;24.10;39.10
29539;DHT22;16482;51.046;4.498;2023-05-29T04:11:30;24.10;39.10
29539;DHT22;16482;51.046;4.498;2023-05-29T04:14:07;24.10;39.10
29539;DHT22;16482;51.046;4.498;2023-05-29T04:16:33;24.10;39.00
29539;DHT22;16482;51.046;4.498;2023-05-29T04:19:02;24.10;39.00
29539;DHT22;16482;51.046;4.498;2023-05-29T04:21:33;24.10;38.90
29539;DHT22;16482;51.046;4.498;2023-05-29T04:24:07;24.10;38.90
29539;DHT22;16482;51.046;4.498;2023-05-29T04:26:33;24.10;38.80
29539;DHT22;16482;51.046;4.498;2023-05-29T04:29:08;24.10;38.80
29539;DHT22;16482;51.046;4.498;2023-05-29T04:31:34;24.10;38.70
29539;DHT22;16482;51.046;4.498;2023-05-29T04:34:04;24.00;38.80
29539;DHT22;16482;51.046;4.498;2023-05-29T04:36:30;24.00;38.70
29539;DHT22;16482;51.046;4.498;2023-05-29T04:39:01;24.10;38.80
29539;DHT22;16482;51.046;4.498;2023-05-29T04:41:30;24.10;38.70
29539;DHT22;16482;51.046;4.498;2023-05-29T04:44:06;24.10;38.70
29539;DHT22;16482;51.046;4.498;2023-05-29T04:46:31;24.10;38.80
29539;DHT22;16482;51.046;4.498;2023-05-29T04:49:02;24.10;38.70
29539;DHT22;16482;51.046;4.498;2023-05-29T04:51:30;24.00;38.60
29539;DHT22;16482;51.046;4.498;2023-05-29T04:54:06;24.00;38.60
29539;DHT22;16482;51.046;4.498;2023-05-29T04:56:35;24.00;38.50
29539;DHT22;16482;51.046;4.498;2023-05-29T04:59:00;24.10;38.60
29539;DHT22;16482;51.046;4.498;2023-05-29T05:01:35;24.00;38.50
29539;DHT22;16482;51.046;4.498;2023-05-29T05:04:01;24.10;38.50
29539;DHT22;16482;51.046;4.498;2023-05-29T05:06:32;24.00;38.50
29539;DHT22;16482;51.046;4.498;2023-05-29T05:09:07;24.00;38.50
29539;DHT22;16482;51.046;4.498;2023-05-29T05:11:33;24.00;38.50
29539;DHT22;16482;51.046;4.498;2023-05-29T05:14:02;24.00;38.50
29539;DHT22;16482;51.046;4.498;2023-05-29T05:16:31;24.00;38.50
29539;DHT22;16482;51.046;4.498;2023-05-29T05:19:06;24.10;38.50
29539;DHT22;16482;51.046;4.498;2023-05-29T05:21:32;24.00;38.40
29539;DHT22;16482;51.046;4.498;2023-05-29T05:24:01;24.00;38.50
29539;DHT22;16482;51.046;4.498;2023-05-29T05:26:34;24.00;38.40
29539;DHT22;16482;51.046;4.498;2023-05-29T05:29:03;24.00;38.40
29539;DHT22;16482;51.046;4.498;2023-05-29T05:31:32;24.00;38.50
29539;DHT22;16482;51.046;4.498;2023-05-29T05:34:00;24.00;38.40
29539;DHT22;16482;51.046;4.498;2023-05-29T05:36:34;24.00;38.50
29539;DHT22;16482;51.046;4.498;2023-05-29T05:39:00;24.10;38.50
29539;DHT22;16482;51.046;4.498;2023-05-29T05:41:35;24.00;38.40
29539;DHT22;16482;51.046;4.498;2023-05-29T05:44:01;24.00;38.40
29539;DHT22;16482;51.046;4.498;2023-05-29T05:46:30;24.00;38.40
29539;DHT22;16482;51.046;4.498;2023-05-29T05:49:08;24.00;38.40
29539;DHT22;16482;51.046;4.498;2023-05-29T05:51:33;24.00;38.40
29539;DHT22;16482;51.046;4.498;2023-05-29T05:54:03;24.00;38.40
29539;DHT22;16482;51.046;4.498;2023-05-29T05:56:32;24.00;38.40
29539;DHT22;16482;51.046;4.498;2023-05-29T05:59:00;24.00;38.40
29539;DHT22;16482;51.046;4.498;2023-05-29T06:01:34;24.00;38.40
29539;DHT22;16482;51.046;4.498;2023-05-29T06:04:02;24.00;38.30
29539;DHT22;16482;51.046;4.498;2023-05-29T06:06:31;24.00;38.30
29539;DHT22;16482;51.046;4.498;2023-05-29T06:08:59;24.00;38.30
29539;DHT22;16482;51.046;4.498;2023-05-29T06:11:33;24.00;38.30
29539;DHT22;16482;51.046;4.498;2023-05-29T06:14:01;24.00;38.30
29539;DHT22;16482;51.046;4.498;2023-05-29T06:16:36;24.00;38.30
29539;DHT22;16482;51.046;4.498;2023-05-29T06:19:02;24.00;38.20
29539;DHT22;16482;51.046;4.498;2023-05-29T06:21:38;24.00;38.30
29539;DHT22;16482;51.046;4.498;2023-05-29T06:24:05;24.00;38.30
29539;DHT22;16482;51.046;4.498;2023-05-29T06:26:31;23.90;38.30
29539;DHT22;16482;51.046;4.498;2023-05-29T06:29:06;24.00;38.30
29539;DHT22;16482;51.046;4.498;2023-05-29T06:31:32;24.00;38.20
29539;DHT22;16482;51.046;4.498;2023-05-29T06:34:07;24.00;38.30
29539;DHT22;16482;51.046;4.498;2023-05-29T06:36:33;24.00;38.30
29539;DHT22;16482;51.046;4.498;2023-05-29T06:39:08;24.00;38.30
29539;DHT22;16482;51.046;4.498;2023-05-29T06:41:36;24.00;38.20
29539;DHT22;16482;51.046;4.498;2023-05-29T06:44:05;24.00;38.20
29539;DHT22;16482;51.046;4.498;2023-05-29T06:46:33;24.00;38.20
29539;DHT22;16482;51.046;4.498;2023-05-29T06:49:02;24.20;38.10
29539;DHT22;16482;51.046;4.498;2023-05-29T06:51:31;24.40;37.50
29539;DHT22;16482;51.046;4.498;2023-05-29T06:54:07;24.60;37.10
29539;DHT22;16482;51.046;4.498;2023-05-29T06:56:35;24.90;36.50
29539;DHT22;16482;51.046;4.498;2023-05-29T06:59:01;25.10;36.10
29539;DHT22;16482;51.046;4.498;2023-05-29T07:01:30;25.30;35.70
29539;DHT22;16482;51.046;4.498;2023-05-29T07:04:04;25.40;35.40
29539;DHT22;16482;51.046;4.498;2023-05-29T07:06:30;25.50;35.20
29539;DHT22;16482;51.046;4.498;2023-05-29T07:09:01;25.60;35.10
29539;DHT22;16482;51.046;4.498;2023-05-29T07:11:30;25.60;35.10
29539;DHT22;16482;51.046;4.498;2023-05-29T07:14:04;25.60;35.10
29539;DHT22;16482;51.046;4.498;2023-05-29T07:16:38;25.60;35.00
29539;DHT22;16482;51.046;4.498;2023-05-29T07:19:04;25.70;34.90
29539;DHT22;16482;51.046;4.498;2023-05-29T07:21:33;25.60;35.00
29539;DHT22;16482;51.046;4.498;2023-05-29T07:24:01;25.70;35.00
29539;DHT22;16482;51.046;4.498;2023-05-29T07:26:37;25.70;35.00
29539;DHT22;16482;51.046;4.498;2023-05-29T07:29:02;25.70;34.90
29539;DHT22;16482;51.046;4.498;2023-05-29T07:31:33;25.70;34.90
29539;DHT22;16482;51.046;4.498;2023-05-29T07:34:04;25.70;34.90
29539;DHT22;16482;51.046;4.498;2023-05-29T07:36:33;25.70;35.00
29539;DHT22;16482;51.046;4.498;2023-05-29T07:39:06;25.70;35.00
29539;DHT22;16482;51.046;4.498;2023-05-29T07:41:35;25.60;35.00
29539;DHT22;16482;51.046;4.498;2023-05-29T07:44:01;25.50;35.10
29539;DHT22;16482;51.046;4.498;2023-05-29T07:46:30;25.40;35.30
29539;DHT22;16482;51.046;4.498;2023-05-29T07:48:56;25.40;35.50
29539;DHT22;16482;51.046;4.498;2023-05-29T07:51:39;25.30;35.60
29539;DHT22;16482;51.046;4.498;2023-05-29T07:54:05;25.20;35.80
29539;DHT22;16482;51.046;4.498;2023-05-29T07:56:34;25.10;35.90
29539;DHT22;16482;51.046;4.498;2023-05-29T07:59:03;25.10;35.90
29539;DHT22;16482;51.046;4.498;2023-05-29T08:01:37;25.10;36.10
29539;DHT22;16482;51.046;4.498;2023-05-29T08:04:03;25.00;36.00
29539;DHT22;16482;51.046;4.498;2023-05-29T08:06:36;25.00;36.20
29539;DHT22;16482;51.046;4.498;2023-05-29T08:09:05;25.00;36.30
29539;DHT22;16482;51.046;4.498;2023-05-29T08:11:34;25.00;36.50
29539;DHT22;16482;51.046;4.498;2023-05-29T08:14:03;24.90;36.40
29539;DHT22;16482;51.046;4.498;2023-05-29T08:16:36;24.90;36.50
29539;DHT22;16482;51.046;4.498;2023-05-29T08:19:02;24.80;36.40
29539;DHT22;16482;51.046;4.498;2023-05-29T08:21:40;24.80;36.40
29539;DHT22;16482;51.046;4.498;2023-05-29T08:24:07;24.90;36.50
29539;DHT22;16482;51.046;4.498;2023-05-29T08:26:35;24.80;36.50
29539;DHT22;16482;51.046;4.498;2023-05-29T08:29:09;24.80;36.70
29539;DHT22;16482;51.046;4.498;2023-05-29T08:31:35;24.80;36.60
29539;DHT22;16482;51.046;4.498;2023-05-29T08:34:04;24.80;36.60
29539;DHT22;16482;51.046;4.498;2023-05-29T08:36:32;24.80;36.70
29539;DHT22;16482;51.046;4.498;2023-05-29T08:39:05;24.80;36.60
29539;DHT22;16482;51.046;4.498;2023-05-29T08:41:41;24.80;36.60
29539;DHT22;16482;51.046;4.498;2023-05-29T08:44:08;24.80;36.60
29539;DHT22;16482;51.046;4.498;2023-05-29T08:46:38;24.80;36.60
29539;DHT22;16482;51.046;4.498;2023-05-29T08:49:08;24.80;36.60
29539;DHT22;16482;51.046;4.498;2023-05-29T08:51:37;24.80;36.60
29539;DHT22;16482;51.046;4.498;2023-05-29T08:54:09;24.80;36.70
29539;DHT22;16482;51.046;4.498;2023-05-29T08:56:36;24.80;36.60
29539;DHT22;16482;51.046;4.498;2023-05-29T08:59:02;24.80;36.60
29539;DHT22;16482;51.046;4.498;2023-05-29T09:01:37;24.80;36.50
29539;DHT22;16482;51.046;4.498;2023-05-29T09:04:04;24.80;36.50
29539;DHT22;16482;51.046;4.498;2023-05-29T09:06:39;24.80;36.60
29539;DHT22;16482;51.046;4.498;2023-05-29T09:09:06;24.80;36.70
29539;DHT22;16482;51.046;4.498;2023-05-29T09:11:32;24.80;36.60
29539;DHT22;16482;51.046;4.498;2023-05-29T09:14:03;24.80;36.60
29539;DHT22;16482;51.046;4.498;2023-05-29T09:16:41;24.80;36.50
29539;DHT22;16482;51.046;4.498;2023-05-29T09:19:08;24.80;36.50
29539;DHT22;16482;51.046;4.498;2023-05-29T09:21:34;24.80;36.40
29539;DHT22;16482;51.046;4.498;2023-05-29T09:24:05;24.80;36.40
29539;DHT22;16482;51.046;4.498;2023-05-29T09:26:33;24.80;36.40
29539;DHT22;16482;51.046;4.498;2023-05-29T09:29:05;24.80;36.40
29539;DHT22;16482;51.046;4.498;2023-05-29T09:31:36;24.80;36.40
29539;DHT22;16482;51.046;4.498;2023-05-29T09:34:11;24.80;36.30
29539;DHT22;16482;51.046;4.498;2023-05-29T09:36:38;24.80;36.30
29539;DHT22;16482;51.046;4.498;2023-05-29T09:39:07;24.70;36.20
29539;DHT22;16482;51.046;4.498;2023-05-29T09:41:45;24.80;36.20
29539;DHT22;16482;51.046;4.498;2023-05-29T09:44:15;24.80;36.10
29539;DHT22;16482;51.046;4.498;2023-05-29T09:46:41;24.70;36.10
29539;DHT22;16482;51.046;4.498;2023-05-29T09:49:12;24.80;36.10
29539;DHT22;16482;51.046;4.498;2023-05-29T09:51:39;24.70;35.90
29539;DHT22;16482;51.046;4.498;2023-05-29T09:54:18;24.80;35.90
29539;DHT22;16482;51.046;4.498;2023-05-29T09:56:44;24.80;35.80
29539;DHT22;16482;51.046;4.498;2023-05-29T09:59:12;24.80;35.80
29539;DHT22;16482;51.046;4.498;2023-05-29T10:01:43;24.80;35.80
29539;DHT22;16482;51.046;4.498;2023-05-29T10:04:10;24.80;35.70
29539;DHT22;16482;51.046;4.498;2023-05-29T10:06:38;24.70;35.60
29539;DHT22;16482;51.046;4.498;2023-05-29T10:09:09;24.70;35.60
29539;DHT22;16482;51.046;4.498;2023-05-29T10:11:38;24.70;35.60
29539;DHT22;16482;51.046;4.498;2023-05-29T10:14:06;24.70;35.50
29539;DHT22;16482;51.046;4.498;2023-05-29T10:16:35;24.80;35.50
29539;DHT22;16482;51.046;4.498;2023-05-29T10:19:06;24.70;35.50
29539;DHT22;16482;51.046;4.498;2023-05-29T10:21:37;24.70;35.50
29539;DHT22;16482;51.046;4.498;2023-05-29T10:24:06;24.70;35.50
29539;DHT22;16482;51.046;4.498;2023-05-29T10:26:37;24.70;35.50
29539;DHT22;16482;51.046;4.498;2023-05-29T10:29:09;24.70;35.40
29539;DHT22;16482;51.046;4.498;2023-05-29T10:35:12;24.80;35.50
29539;DHT22;16482;51.046;4.498;2023-05-29T10:37:44;24.70;35.40
29539;DHT22;16482;51.046;4.498;2023-05-29T10:40:11;24.70;35.40
29539;DHT22;16482;51.046;4.498;2023-05-29T10:42:50;24.70;35.40
29539;DHT22;16482;51.046;4.498;2023-05-29T10:50:54;24.80;35.40
29539;DHT22;16482;51.046;4.498;2023-05-29T10:53:26;24.70;35.60
29539;DHT22;16482;51.046;4.498;2023-05-29T10:55:53;24.60;35.60
29539;DHT22;16482;51.046;4.498;2023-05-29T10:58:20;24.70;35.70
29539;DHT22;16482;51.046;4.498;2023-05-29T11:00:48;24.70;35.70
29539;DHT22;16482;51.046;4.498;2023-05-29T11:03:19;24.70;35.90
29539;DHT22;16482;51.046;4.498;2023-05-29T11:06:21;24.70;35.80
29539;DHT22;16482;51.046;4.498;2023-05-29T11:08:54;24.70;35.80
29539;DHT22;16482;51.046;4.498;2023-05-29T11:11:35;24.70;36.00
29539;DHT22;16482;51.046;4.498;2023-05-29T11:14:06;24.70;36.00
29539;DHT22;16482;51.046;4.498;2023-05-29T11:19:08;24.60;36.00
29539;DHT22;16482;51.046;4.498;2023-05-29T11:21:59;24.60;35.90
29539;DHT22;16482;51.046;4.498;2023-05-29T11:24:27;24.70;35.90
29539;DHT22;16482;51.046;4.498;2023-05-29T11:26:55;24.60;36.00
29539;DHT22;16482;51.046;4.498;2023-05-29T11:29:23;24.60;35.90
29539;DHT22;16482;51.046;4.498;2023-05-29T11:32:02;24.60;35.90
29539;DHT22;16482;51.046;4.498;2023-05-29T11:34:30;24.60;35.90
29539;DHT22;16482;51.046;4.498;2023-05-29T11:37:00;24.60;36.00
29539;DHT22;16482;51.046;4.498;2023-05-29T11:39:26;24.60;35.90
29539;DHT22;16482;51.046;4.498;2023-05-29T11:41:52;24.60;36.00
29539;DHT22;16482;51.046;4.498;2023-05-29T11:44:20;24.60;36.00
29539;DHT22;16482;51.046;4.498;2023-05-29T11:46:46;24.60;36.00
29539;DHT22;16482;51.046;4.498;2023-05-29T11:49:12;24.60;36.10
29539;DHT22;16482;51.046;4.498;2023-05-29T11:51:41;24.70;36.20
29539;DHT22;16482;51.046;4.498;2023-05-29T11:54:07;24.70;36.10
29539;DHT22;16482;51.046;4.498;2023-05-29T11:56:35;24.70;36.20
29539;DHT22;16482;51.046;4.498;2023-05-29T11:59:04;24.70;36.10
29539;DHT22;16482;51.046;4.498;2023-05-29T12:01:36;24.70;36.10
29539;DHT22;16482;51.046;4.498;2023-05-29T12:04:14;24.60;36.10
29539;DHT22;16482;51.046;4.498;2023-05-29T12:06:41;24.70;36.10
29539;DHT22;16482;51.046;4.498;2023-05-29T12:09:07;24.70;36.20
29539;DHT22;16482;51.046;4.498;2023-05-29T12:11:34;24.70;36.20
29539;DHT22;16482;51.046;4.498;2023-05-29T12:14:08;24.70;36.20
29539;DHT22;16482;51.046;4.498;2023-05-29T12:16:34;24.70;36.20
29539;DHT22;16482;51.046;4.498;2023-05-29T12:19:05;24.70;36.20
29539;DHT22;16482;51.046;4.498;2023-05-29T12:21:34;24.70;36.20
29539;DHT22;16482;51.046;4.498;2023-05-29T12:24:10;24.70;36.20
29539;DHT22;16482;51.046;4.498;2023-05-29T12:26:36;24.70;36.10
29539;DHT22;16482;51.046;4.498;2023-05-29T12:29:09;24.70;36.30
29539;DHT22;16482;51.046;4.498;2023-05-29T12:31:35;24.70;36.20
29539;DHT22;16482;51.046;4.498;2023-05-29T12:34:11;24.70;36.80
29539;DHT22;16482;51.046;4.498;2023-05-29T12:36:42;24.70;36.20
29539;DHT22;16482;51.046;4.498;2023-05-29T12:39:11;24.70;36.20
29539;DHT22;16482;51.046;4.498;2023-05-29T12:41:38;24.70;36.30
29539;DHT22;16482;51.046;4.498;2023-05-29T12:44:06;24.70;36.30
29539;DHT22;16482;51.046;4.498;2023-05-29T12:46:39;24.70;36.30
29539;DHT22;16482;51.046;4.498;2023-05-29T12:49:16;24.70;36.30
29539;DHT22;16482;51.046;4.498;2023-05-29T12:51:44;24.70;36.30
29539;DHT22;16482;51.046;4.498;2023-05-29T12:54:11;24.70;36.40
29539;DHT22;16482;51.046;4.498;2023-05-29T12:56:38;24.70;36.40
29539;DHT22;16482;51.046;4.498;2023-05-29T12:59:06;24.70;36.40
29539;DHT22;16482;51.046;4.498;2023-05-29T13:01:33;24.70;36.40
29539;DHT22;16482;51.046;4.498;2023-05-29T13:04:07;24.70;36.40
29539;DHT22;16482;51.046;4.498;2023-05-29T13:06:37;24.70;36.30
29539;DHT22;16482;51.046;4.498;2023-05-29T13:09:03;24.70;36.40
29539;DHT22;16482;51.046;4.498;2023-05-29T13:11:39;24.70;36.50
29539;DHT22;16482;51.046;4.498;2023-05-29T13:14:05;24.70;36.50
29539;DHT22;16482;51.046;4.498;2023-05-29T13:16:34;24.70;36.50
29539;DHT22;16482;51.046;4.498;2023-05-29T13:19:06;24.70;36.50
29539;DHT22;16482;51.046;4.498;2023-05-29T13:21:35;24.70;36.50
29539;DHT22;16482;51.046;4.498;2023-05-29T13:24:05;24.70;36.60
29539;DHT22;16482;51.046;4.498;2023-05-29T13:26:34;24.70;36.60
29539;DHT22;16482;51.046;4.498;2023-05-29T13:29:08;24.70;36.60
29539;DHT22;16482;51.046;4.498;2023-05-29T13:31:33;24.80;36.60
29539;DHT22;16482;51.046;4.498;2023-05-29T13:34:08;24.70;36.60
29539;DHT22;16482;51.046;4.498;2023-05-29T13:36:34;24.70;36.50
29539;DHT22;16482;51.046;4.498;2023-05-29T13:39:09;24.70;36.60
29539;DHT22;16482;51.046;4.498;2023-05-29T13:41:35;24.70;36.60
29539;DHT22;16482;51.046;4.498;2023-05-29T13:44:09;24.70;36.60
29539;DHT22;16482;51.046;4.498;2023-05-29T13:46:37;24.70;36.60
29539;DHT22;16482;51.046;4.498;2023-05-29T13:49:05;24.70;36.70
29539;DHT22;16482;51.046;4.498;2023-05-29T13:51:35;24.70;36.60
29539;DHT22;16482;51.046;4.498;2023-05-29T13:54:05;24.70;36.70
29539;DHT22;16482;51.046;4.498;2023-05-29T13:56:39;24.70;36.70
29539;DHT22;16482;51.046;4.498;2023-05-29T13:59:06;24.80;37.30
29539;DHT22;16482;51.046;4.498;2023-05-29T14:01:39;24.70;36.70
29539;DHT22;16482;51.046;4.498;2023-05-29T14:04:05;24.70;36.70
29539;DHT22;16482;51.046;4.498;2023-05-29T14:06:34;24.70;36.70
29539;DHT22;16482;51.046;4.498;2023-05-29T14:09:09;24.70;36.70
29539;DHT22;16482;51.046;4.498;2023-05-29T14:11:36;24.80;36.80
29539;DHT22;16482;51.046;4.498;2023-05-29T14:14:05;24.70;36.70
29539;DHT22;16482;51.046;4.498;2023-05-29T14:16:36;24.70;36.60
29539;DHT22;16482;51.046;4.498;2023-05-29T14:19:02;24.70;36.60
29539;DHT22;16482;51.046;4.498;2023-05-29T14:21:35;24.70;36.70
29539;DHT22;16482;51.046;4.498;2023-05-29T14:24:04;24.80;36.70
29539;DHT22;16482;51.046;4.498;2023-05-29T14:26:33;24.80;36.70
29539;DHT22;16482;51.046;4.498;2023-05-29T14:29:03;24.80;36.60
29539;DHT22;16482;51.046;4.498;2023-05-29T14:31:35;24.80;36.70
29539;DHT22;16482;51.046;4.498;2023-05-29T14:34:04;24.70;36.60
29539;DHT22;16482;51.046;4.498;2023-05-29T14:36:37;24.80;36.60
29539;DHT22;16482;51.046;4.498;2023-05-29T14:39:06;24.80;36.60
29539;DHT22;16482;51.046;4.498;2023-05-29T14:41:34;24.80;36.50
29539;DHT22;16482;51.046;4.498;2023-05-29T14:44:04;24.70;36.50
29539;DHT22;16482;51.046;4.498;2023-05-29T14:46:38;24.70;36.50
29539;DHT22;16482;51.046;4.498;2023-05-29T14:49:04;24.80;36.50
29539;DHT22;16482;51.046;4.498;2023-05-29T14:51:38;24.70;37.10
29539;DHT22;16482;51.046;4.498;2023-05-29T14:54:11;24.80;36.40
29539;DHT22;16482;51.046;4.498;2023-05-29T14:56:37;24.70;36.50
29539;DHT22;16482;51.046;4.498;2023-05-29T14:59:06;24.80;36.40
29539;DHT22;16482;51.046;4.498;2023-05-29T15:01:34;24.80;36.40
29539;DHT22;16482;51.046;4.498;2023-05-29T15:04:09;24.80;36.40
29539;DHT22;16482;51.046;4.498;2023-05-29T15:06:35;24.80;36.40
29539;DHT22;16482;51.046;4.498;2023-05-29T15:09:09;24.70;36.30
29539;DHT22;16482;51.046;4.498;2023-05-29T15:11:36;24.80;36.30
29539;DHT22;16482;51.046;4.498;2023-05-29T15:14:11;24.70;36.30
29539;DHT22;16482;51.046;4.498;2023-05-29T15:16:37;24.80;36.20
29539;DHT22;16482;51.046;4.498;2023-05-29T15:19:06;24.70;36.20
29539;DHT22;16482;51.046;4.498;2023-05-29T15:21:35;24.70;36.20
29539;DHT22;16482;51.046;4.498;2023-05-29T15:24:04;24.80;36.10
29539;DHT22;16482;51.046;4.498;2023-05-29T15:26:39;24.80;36.00
29539;DHT22;16482;51.046;4.498;2023-05-29T15:29:05;24.80;36.00
29539;DHT22;16482;51.046;4.498;2023-05-29T15:31:40;24.70;36.00
29539;DHT22;16482;51.046;4.498;2023-05-29T15:34:05;24.80;35.90
29539;DHT22;16482;51.046;4.498;2023-05-29T15:36:35;24.70;35.90
29539;DHT22;16482;51.046;4.498;2023-05-29T15:39:04;24.70;35.90
29539;DHT22;16482;51.046;4.498;2023-05-29T15:41:40;24.70;35.80
29539;DHT22;16482;51.046;4.498;2023-05-29T15:44:06;24.80;35.80
29539;DHT22;16482;51.046;4.498;2023-05-29T15:46:34;24.70;35.80
29539;DHT22;16482;51.046;4.498;2023-05-29T15:49:03;24.70;35.70
29539;DHT22;16482;51.046;4.498;2023-05-29T15:51:39;24.70;35.70
29539;DHT22;16482;51.046;4.498;2023-05-29T15:54:06;24.70;35.80
29539;DHT22;16482;51.046;4.498;2023-05-29T15:56:35;24.70;35.80
29539;DHT22;16482;51.046;4.498;2023-05-29T15:59:06;24.70;35.80
29539;DHT22;16482;51.046;4.498;2023-05-29T16:01:35;24.70;35.90
29539;DHT22;16482;51.046;4.498;2023-05-29T16:04:04;24.60;35.70
29539;DHT22;16482;51.046;4.498;2023-05-29T16:06:38;24.70;35.80
29539;DHT22;16482;51.046;4.498;2023-05-29T16:09:05;24.60;35.60
29539;DHT22;16482;51.046;4.498;2023-05-29T16:11:39;24.70;35.70